createdAt,value
2022-10-11T00:01:26.839Z,15.62
2022-10-11T00:03:54.409Z,15.64
2022-10-11T00:06:21.945Z,15.63
2022-10-11T00:08:49.475Z,15.64
2022-10-11T00:11:18.372Z,15.65
2022-10-11T00:13:45.966Z,15.61
2022-10-11T00:16:15.422Z,15.55
2022-10-11T00:18:43.483Z,15.52
2022-10-11T00:21:13.850Z,15.51
2022-10-11T00:23:41.717Z,15.43
2022-10-11T00:26:11.877Z,15.47
2022-10-11T00:28:41.685Z,15.61
2022-10-11T00:31:10.613Z,15.61
2022-10-11T00:33:38.495Z,15.65
2022-10-11T00:36:07.047Z,15.58
2022-10-11T00:38:35.150Z,15.54
2022-10-11T00:41:02.824Z,15.47
2022-10-11T00:43:32.121Z,15.37
2022-10-11T00:46:22.925Z,15.48
2022-10-11T00:48:55.329Z,15.37
2022-10-11T00:51:31.020Z,15.40
2022-10-11T00:54:02.758Z,15.34
2022-10-11T00:56:33.650Z,15.32
2022-10-11T00:59:03.524Z,15.46
2022-10-11T01:01:32.713Z,15.52
2022-10-11T01:04:00.541Z,15.34
2022-10-11T01:06:28.383Z,15.26
2022-10-11T01:08:56.115Z,15.41
2022-10-11T01:11:26.566Z,15.30
2022-10-11T01:14:06.726Z,15.09
2022-10-11T01:16:43.602Z,15.19
2022-10-11T01:19:24.306Z,15.21
2022-10-11T01:21:58.585Z,15.08
2022-10-11T01:24:48.514Z,15.09
2022-10-11T01:27:47.089Z,14.96
2022-10-11T01:30:24.114Z,15.12
2022-10-11T01:32:58.674Z,15.02
2022-10-11T01:35:31.022Z,15.00
2022-10-11T01:38:04.202Z,14.94
2022-10-11T01:40:38.004Z,14.89
2022-10-11T01:43:06.930Z,14.91
2022-10-11T01:45:37.210Z,14.88
2022-10-11T01:48:08.902Z,14.87
2022-10-11T01:50:43.058Z,14.98
2022-10-11T01:53:32.003Z,14.87
2022-10-11T01:56:10.545Z,14.86
2022-10-11T01:58:51.623Z,14.88
2022-10-11T02:01:32.089Z,14.87
2022-10-11T02:04:07.286Z,14.66
2022-10-11T02:06:47.529Z,14.61
2022-10-11T02:09:24.655Z,14.47
2022-10-11T02:11:57.238Z,14.53
2022-10-11T02:14:31.482Z,14.43
2022-10-11T02:17:07.569Z,14.38
2022-10-11T02:19:38.961Z,14.37
2022-10-11T02:22:10.992Z,14.33
2022-10-11T02:24:42.303Z,14.36
2022-10-11T02:27:11.476Z,14.40
2022-10-11T02:29:42.487Z,14.42
2022-10-11T02:32:12.420Z,14.35
2022-10-11T02:34:46.089Z,14.38
2022-10-11T02:37:20.186Z,14.37
2022-10-11T02:39:53.891Z,14.31
2022-10-11T02:42:26.892Z,14.36
2022-10-11T02:45:01.094Z,14.36
2022-10-11T02:47:32.570Z,14.34
2022-10-11T02:50:00.988Z,14.16
2022-10-11T02:52:28.743Z,14.08
2022-10-11T02:54:56.389Z,14.07
2022-10-11T02:57:24.027Z,14.10
2022-10-11T02:59:51.604Z,14.02
2022-10-11T03:02:19.167Z,13.95
2022-10-11T03:04:48.346Z,13.93
2022-10-11T03:07:15.957Z,13.87
2022-10-11T03:09:43.573Z,13.74
2022-10-11T03:12:11.093Z,13.76
2022-10-11T03:14:38.621Z,13.77
2022-10-11T03:17:30.866Z,13.58
2022-10-11T03:19:55.179Z,13.64
2022-10-11T03:22:22.743Z,13.49
2022-10-11T03:24:50.265Z,13.48
2022-10-11T03:27:17.911Z,13.54
2022-10-11T03:29:45.309Z,13.45
2022-10-11T03:32:12.690Z,13.38
2022-10-11T03:34:40.082Z,13.39
2022-10-11T03:37:08.804Z,13.45
2022-10-11T03:39:36.371Z,13.51
2022-10-11T03:42:03.939Z,13.39
2022-10-11T03:44:31.478Z,13.45
2022-10-11T03:46:59.026Z,13.46
2022-10-11T03:49:26.845Z,13.43
2022-10-11T03:51:54.382Z,13.49
2022-10-11T03:54:23.600Z,13.39
2022-10-11T03:56:51.170Z,13.25
2022-10-11T03:59:18.744Z,13.35
2022-10-11T04:01:46.335Z,13.42
2022-10-11T04:04:13.861Z,13.27
2022-10-11T04:06:41.411Z,13.38
2022-10-11T04:09:09.456Z,13.31
2022-10-11T04:11:38.336Z,13.32
2022-10-11T04:14:06.141Z,13.31
2022-10-11T04:16:34.078Z,13.11
2022-10-11T04:19:02.144Z,13.18
2022-10-11T04:21:29.733Z,13.10
2022-10-11T04:23:57.250Z,13.00
2022-10-11T04:26:24.830Z,13.08
2022-10-11T04:28:53.770Z,12.95
2022-10-11T04:31:21.377Z,12.99
2022-10-11T04:33:48.941Z,13.02
2022-10-11T04:36:16.610Z,12.94
2022-10-11T04:38:44.146Z,13.01
2022-10-11T04:41:14.018Z,13.02
2022-10-11T04:43:41.589Z,12.97
2022-10-11T04:46:11.681Z,13.10
2022-10-11T04:48:39.434Z,12.90
2022-10-11T04:51:07.219Z,12.88
2022-10-11T04:53:34.771Z,12.77
2022-10-11T04:56:04.302Z,12.76
2022-10-11T04:58:33.845Z,12.72
2022-10-11T05:01:02.055Z,12.80
2022-10-11T05:03:31.491Z,12.66
2022-10-11T05:06:02.039Z,12.65
2022-10-11T05:08:32.920Z,12.58
2022-10-11T05:11:03.937Z,12.56
2022-10-11T05:13:32.143Z,12.52
2022-10-11T05:16:00.232Z,12.38
2022-10-11T05:18:28.441Z,12.47
2022-10-11T05:21:08.965Z,12.43
2022-10-11T05:23:37.675Z,12.39
2022-10-11T05:26:06.151Z,12.48
2022-10-11T05:28:34.235Z,12.52
2022-10-11T05:31:01.848Z,12.48
2022-10-11T05:33:29.381Z,12.48
2022-10-11T05:35:56.934Z,12.43
2022-10-11T05:38:25.882Z,12.54
2022-10-11T05:40:53.513Z,12.46
2022-10-11T05:43:21.460Z,12.27
2022-10-11T05:45:48.997Z,12.47
2022-10-11T05:48:16.510Z,12.51
2022-10-11T05:50:44.389Z,12.56
2022-10-11T05:53:12.282Z,12.56
2022-10-11T05:55:43.264Z,12.60
2022-10-11T05:58:13.683Z,12.41
2022-10-11T06:00:41.805Z,12.45
2022-10-11T06:03:11.705Z,12.26
2022-10-11T06:05:39.676Z,12.32
2022-10-11T06:08:09.866Z,12.26
2022-10-11T06:10:38.209Z,12.26
2022-10-11T06:13:07.806Z,12.38
2022-10-11T06:15:35.659Z,12.34
2022-10-11T06:18:03.187Z,12.08
2022-10-11T06:20:30.716Z,12.21
2022-10-11T06:22:59.330Z,12.17
2022-10-11T06:25:26.870Z,12.10
2022-10-11T06:27:54.949Z,12.06
2022-10-11T06:30:24.221Z,11.99
2022-10-11T06:32:51.762Z,12.00
2022-10-11T06:35:19.857Z,11.93
2022-10-11T06:37:47.421Z,12.09
2022-10-11T06:40:15.093Z,11.98
2022-10-11T06:42:42.647Z,11.95
2022-10-11T06:45:10.942Z,12.03
2022-10-11T06:47:39.837Z,11.99
2022-10-11T06:50:07.978Z,11.78
2022-10-11T06:52:35.513Z,11.94
2022-10-11T06:55:03.042Z,11.94
2022-10-11T06:57:30.805Z,11.97
2022-10-11T06:59:58.406Z,12.09
2022-10-11T07:02:25.986Z,12.05
2022-10-11T07:04:54.861Z,12.07
2022-10-11T07:07:22.405Z,11.96
2022-10-11T07:09:49.898Z,11.86
2022-10-11T07:12:17.438Z,11.91
2022-10-11T07:14:44.954Z,11.92
2022-10-11T07:17:12.484Z,11.99
2022-10-11T07:19:40.062Z,11.97
2022-10-11T07:22:09.018Z,12.09
2022-10-11T07:24:36.545Z,12.10
2022-10-11T07:27:04.102Z,12.19
2022-10-11T07:29:31.714Z,12.20
2022-10-11T07:31:59.313Z,12.20
2022-10-11T07:34:27.051Z,12.11
2022-10-11T07:36:54.708Z,12.08
2022-10-11T07:39:23.603Z,12.03
2022-10-11T07:41:51.255Z,12.14
2022-10-11T07:44:18.976Z,12.11
2022-10-11T07:46:46.615Z,12.28
2022-10-11T07:49:14.156Z,12.51
2022-10-11T07:51:41.733Z,12.72
2022-10-11T07:54:09.336Z,12.60
2022-10-11T07:56:39.854Z,12.47
2022-10-11T07:59:08.051Z,12.50
2022-10-11T08:01:35.617Z,12.63
2022-10-11T08:04:03.448Z,12.46
2022-10-11T08:06:32.667Z,12.36
2022-10-11T08:09:02.074Z,12.54
2022-10-11T08:11:31.220Z,12.33
2022-10-11T08:14:01.553Z,12.75
2022-10-11T08:16:29.277Z,13.03
2022-10-11T08:18:57.277Z,13.31
2022-10-11T08:21:26.639Z,13.55
2022-10-11T08:23:54.206Z,13.34
2022-10-11T08:26:22.144Z,13.43
2022-10-11T08:28:49.772Z,13.56
2022-10-11T08:31:18.765Z,13.36
2022-10-11T08:33:46.398Z,13.17
2022-10-11T08:36:14.355Z,13.62
2022-10-11T08:38:42.794Z,13.72
2022-10-11T08:41:33.595Z,13.58
2022-10-11T08:44:21.798Z,13.41
2022-10-11T08:47:00.410Z,13.32
2022-10-11T08:49:30.958Z,13.28
2022-10-11T08:52:02.501Z,13.38
2022-10-11T08:54:39.069Z,13.59
2022-10-11T08:57:08.405Z,13.54
2022-10-11T08:59:42.427Z,13.08
2022-10-11T09:02:25.200Z,13.52
2022-10-11T09:04:54.859Z,13.23
2022-10-11T09:07:33.941Z,13.63
2022-10-11T09:10:27.502Z,13.49
2022-10-11T09:13:05.498Z,13.41
2022-10-11T09:15:38.199Z,13.46
2022-10-11T09:18:26.177Z,13.87
2022-10-11T09:21:03.126Z,13.77
2022-10-11T09:23:45.359Z,13.94
2022-10-11T09:26:19.768Z,13.87
2022-10-11T09:29:01.237Z,14.20
2022-10-11T09:31:30.561Z,14.46
2022-10-11T09:34:06.913Z,14.31
2022-10-11T09:36:40.598Z,14.40
2022-10-11T09:39:22.118Z,14.51
2022-10-11T09:41:56.832Z,14.54
2022-10-11T09:44:28.041Z,14.78
2022-10-11T09:46:58.132Z,15.62
2022-10-11T09:49:32.264Z,16.18
2022-10-11T09:52:02.972Z,15.86
2022-10-11T09:54:40.898Z,16.82
2022-10-11T09:57:19.758Z,17.25
2022-10-11T09:59:59.726Z,18.68
2022-10-11T10:02:28.327Z,19.60
2022-10-11T10:05:02.947Z,18.64
2022-10-11T10:07:32.322Z,18.80
2022-10-11T10:09:59.930Z,18.14
2022-10-11T10:12:29.633Z,18.25
2022-10-11T10:15:05.997Z,19.32
2022-10-11T10:17:34.145Z,19.68
2022-10-11T10:20:05.512Z,19.77
2022-10-11T10:22:35.383Z,18.89
2022-10-11T10:25:07.914Z,19.68
2022-10-11T10:27:35.927Z,18.91
2022-10-11T10:30:14.332Z,18.86
2022-10-11T10:32:51.513Z,18.50
2022-10-11T10:35:33.841Z,18.32
2022-10-11T10:38:08.759Z,19.80
2022-10-11T10:40:43.766Z,18.72
2022-10-11T10:43:19.151Z,19.10
2022-10-11T10:46:13.260Z,20.03
2022-10-11T10:49:28.437Z,20.46
2022-10-11T10:51:49.095Z,19.83
2022-10-11T10:54:28.805Z,20.33
2022-10-11T10:56:59.343Z,21.18
2022-10-11T10:59:49.287Z,19.90
2022-10-11T11:02:39.597Z,20.50
2022-10-11T11:05:18.666Z,20.63
2022-10-11T11:07:52.610Z,20.65
2022-10-11T11:10:23.927Z,21.13
2022-10-11T11:12:59.860Z,21.05
2022-10-11T11:15:37.608Z,20.80
2022-10-11T11:18:21.185Z,20.96
2022-10-11T11:21:04.581Z,21.58
2022-10-11T11:23:43.131Z,21.00
2022-10-11T11:26:19.208Z,20.82
2022-10-11T11:28:55.625Z,21.42
2022-10-11T11:31:38.434Z,21.24
2022-10-11T11:34:14.785Z,21.54
2022-10-11T11:36:46.589Z,21.56
2022-10-11T11:39:19.922Z,21.69
2022-10-11T11:41:51.253Z,21.48
2022-10-11T11:44:27.330Z,21.64
2022-10-11T11:47:00.840Z,22.12
2022-10-11T11:49:35.319Z,21.52
2022-10-11T11:52:05.341Z,21.74
2022-10-11T11:54:42.929Z,21.33
2022-10-11T11:57:24.006Z,21.90
2022-10-11T11:59:58.009Z,22.29
2022-10-11T12:02:46.247Z,22.53
2022-10-11T12:05:16.247Z,21.50
2022-10-11T12:07:51.130Z,21.59
2022-10-11T12:10:28.081Z,22.14
2022-10-11T12:13:19.042Z,20.88
2022-10-11T12:16:00.658Z,20.63
2022-10-11T12:18:29.342Z,20.84
2022-10-11T12:21:06.109Z,21.06
2022-10-11T12:23:47.732Z,20.86
2022-10-11T12:26:41.802Z,20.33
2022-10-11T12:29:29.016Z,20.67
2022-10-11T12:32:50.925Z,21.67
2022-10-11T12:35:51.219Z,21.41
2022-10-11T12:38:21.947Z,20.99
2022-10-11T12:40:51.278Z,20.63
2022-10-11T12:43:30.724Z,20.80
2022-10-11T12:45:58.451Z,20.12
2022-10-11T12:48:54.766Z,20.69
2022-10-11T12:51:34.623Z,20.40
2022-10-11T12:54:36.122Z,20.75
2022-10-11T12:57:28.380Z,20.69
2022-10-11T13:00:17.317Z,20.09
2022-10-11T13:02:45.351Z,20.38
2022-10-11T13:05:21.746Z,21.12
2022-10-11T13:07:50.312Z,20.62
2022-10-11T13:10:23.059Z,20.80
2022-10-11T13:12:51.779Z,20.39
2022-10-11T13:15:23.637Z,20.24
2022-10-11T13:17:54.055Z,20.82
2022-10-11T13:20:25.111Z,21.24
2022-10-11T13:22:55.622Z,20.18
2022-10-11T13:25:25.534Z,20.94
2022-10-11T13:27:55.482Z,20.36
2022-10-11T13:30:28.059Z,20.47
2022-10-11T13:32:55.903Z,20.23
2022-10-11T13:35:30.343Z,20.37
2022-10-11T13:37:58.291Z,19.79
2022-10-11T13:40:26.577Z,19.54
2022-10-11T13:42:56.019Z,20.40
2022-10-11T13:45:26.532Z,19.91
2022-10-11T13:47:55.745Z,19.98
2022-10-11T13:50:31.523Z,19.94
2022-10-11T13:53:01.456Z,19.80
2022-10-11T13:55:33.458Z,20.08
2022-10-11T13:58:03.875Z,19.99
2022-10-11T14:00:39.492Z,19.42
2022-10-11T14:03:18.589Z,19.69
2022-10-11T14:05:54.735Z,19.37
2022-10-11T14:08:28.075Z,19.05
2022-10-11T14:10:58.573Z,18.73
2022-10-11T14:13:32.598Z,18.90
2022-10-11T14:16:05.215Z,19.01
2022-10-11T14:18:39.965Z,18.92
2022-10-11T14:21:29.393Z,18.98
2022-10-11T14:23:59.465Z,18.61
2022-10-11T14:26:31.866Z,18.51
2022-10-11T14:29:01.580Z,18.51
2022-10-11T14:31:30.906Z,18.60
2022-10-11T14:33:59.251Z,18.36
2022-10-11T14:36:26.865Z,18.54
2022-10-11T14:38:54.604Z,18.30
2022-10-11T14:41:22.332Z,18.46
2022-10-11T14:43:49.934Z,18.36
2022-10-11T14:46:23.533Z,18.22
2022-10-11T14:48:55.933Z,18.19
2022-10-11T14:51:28.826Z,18.08
2022-10-11T14:53:56.460Z,18.17
2022-10-11T14:56:24.295Z,18.09
2022-10-11T14:58:51.950Z,17.62
2022-10-11T15:01:19.514Z,17.91
2022-10-11T15:03:47.110Z,17.99
2022-10-11T15:06:19.809Z,18.17
2022-10-11T15:08:47.380Z,17.58
2022-10-11T15:11:17.813Z,17.88
2022-10-11T15:13:45.779Z,17.56
2022-10-11T15:16:15.471Z,17.59
2022-10-11T15:18:43.925Z,17.96
2022-10-11T15:21:14.620Z,18.02
2022-10-11T15:23:43.511Z,17.52
2022-10-11T15:26:14.458Z,17.44
2022-10-11T15:28:42.181Z,16.85
2022-10-11T15:31:10.471Z,16.72
2022-10-11T15:33:38.781Z,16.71
2022-10-11T15:36:08.722Z,17.11
2022-10-11T15:38:36.745Z,16.82
2022-10-11T15:41:06.050Z,16.99
2022-10-11T15:43:33.711Z,16.81
2022-10-11T15:46:03.283Z,16.53
2022-10-11T15:48:32.688Z,16.16
2022-10-11T15:51:00.347Z,16.40
2022-10-11T15:53:31.083Z,16.15
2022-10-11T15:56:00.436Z,16.19
2022-10-11T15:58:31.666Z,16.09
2022-10-11T16:01:01.856Z,16.16
2022-10-11T16:03:31.058Z,16.31
2022-10-11T16:06:04.010Z,16.38
2022-10-11T16:08:32.982Z,16.06
2022-10-11T16:11:01.081Z,16.17
2022-10-11T16:13:29.980Z,15.82
2022-10-11T16:15:57.506Z,15.75
2022-10-11T16:18:25.208Z,15.68
2022-10-11T16:20:52.956Z,15.48
2022-10-11T16:23:21.894Z,15.54
2022-10-11T16:25:57.766Z,15.52
2022-10-11T16:28:25.481Z,15.48
2022-10-11T16:30:54.797Z,15.08
2022-10-11T16:33:22.707Z,15.17
2022-10-11T16:35:50.358Z,14.94
2022-10-11T16:38:18.016Z,15.08
2022-10-11T16:40:45.578Z,14.86
2022-10-11T16:43:13.113Z,14.68
2022-10-11T16:45:40.646Z,14.58
2022-10-11T16:48:09.532Z,14.56
2022-10-11T16:50:39.695Z,14.42
2022-10-11T16:53:07.569Z,14.16
2022-10-11T16:55:35.126Z,14.20
2022-10-11T16:58:03.012Z,13.95
2022-10-11T17:00:30.653Z,13.91
2022-10-11T17:02:58.269Z,13.80
2022-10-11T17:05:27.270Z,13.58
2022-10-11T17:07:54.859Z,13.41
2022-10-11T17:10:39.036Z,13.47
2022-10-11T17:13:06.747Z,13.25
2022-10-11T17:15:36.118Z,12.98
2022-10-11T17:18:04.665Z,12.96
2022-10-11T17:20:33.889Z,12.90
2022-10-11T17:23:01.517Z,12.77
2022-10-11T17:25:29.756Z,12.81
2022-10-11T17:27:57.782Z,12.82
2022-10-11T17:30:26.001Z,12.80
2022-10-11T17:32:53.846Z,12.79
2022-10-11T17:35:21.402Z,12.68
2022-10-11T17:37:50.473Z,12.58
2022-10-11T17:40:18.506Z,12.54
2022-10-11T17:42:47.658Z,12.72
2022-10-11T17:45:15.422Z,12.68
2022-10-11T17:47:42.926Z,12.73
2022-10-11T17:50:10.743Z,12.66
2022-10-11T17:52:38.349Z,12.40
2022-10-11T17:55:07.770Z,12.06
2022-10-11T17:57:35.374Z,12.18
2022-10-11T18:00:03.816Z,12.01
2022-10-11T18:02:31.433Z,11.73
2022-10-11T18:04:58.970Z,11.94
2022-10-11T18:07:26.538Z,11.61
2022-10-11T18:09:54.106Z,11.53
2022-10-11T18:12:23.088Z,11.64
2022-10-11T18:14:51.907Z,11.44
2022-10-11T18:17:19.973Z,11.70
2022-10-11T18:19:47.704Z,11.66
2022-10-11T18:22:15.429Z,11.43
2022-10-11T18:24:43.111Z,11.41
2022-10-11T18:27:10.953Z,11.40
2022-10-11T18:29:42.502Z,11.49
2022-10-11T18:32:10.314Z,11.41
2022-10-11T18:34:38.004Z,11.38
2022-10-11T18:37:05.878Z,11.30
2022-10-11T18:39:33.700Z,11.25
2022-10-11T18:42:04.419Z,11.26
2022-10-11T18:44:32.806Z,11.23
2022-10-11T18:47:01.926Z,11.15
2022-10-11T18:49:30.035Z,10.99
2022-10-11T18:51:57.914Z,11.04
2022-10-11T18:54:25.652Z,11.00
2022-10-11T18:56:53.441Z,11.01
2022-10-11T18:59:21.157Z,10.89
2022-10-11T19:01:52.009Z,10.89
2022-10-11T19:04:21.128Z,10.76
2022-10-11T19:06:50.480Z,10.81
2022-10-11T19:09:21.721Z,10.58
2022-10-11T19:11:50.032Z,10.52
2022-10-11T19:14:19.585Z,10.50
2022-10-11T19:16:51.213Z,10.46
2022-10-11T19:19:23.454Z,10.42
2022-10-11T19:21:51.786Z,10.41
2022-10-11T19:24:22.038Z,10.42
2022-10-11T19:26:50.333Z,10.27
2022-10-11T19:29:20.696Z,10.26
2022-10-11T19:31:50.751Z,10.20
2022-10-11T19:34:18.618Z,10.16
2022-10-11T19:36:50.106Z,10.12
2022-10-11T19:39:19.446Z,10.38
2022-10-11T19:41:47.701Z,10.58
2022-10-11T19:44:16.278Z,10.63
2022-10-11T19:46:51.491Z,10.71
2022-10-11T19:49:22.708Z,10.77
2022-10-11T19:51:52.197Z,10.72
2022-10-11T19:54:19.978Z,10.47
2022-10-11T19:56:47.888Z,10.45
2022-10-11T19:59:16.094Z,10.66
2022-10-11T20:01:47.887Z,10.73
2022-10-11T20:04:46.964Z,10.70
2022-10-11T20:07:08.235Z,10.58
2022-10-11T20:09:36.741Z,10.77
2022-10-11T20:12:04.562Z,10.75
2022-10-11T20:14:32.351Z,10.59
2022-10-11T20:16:59.961Z,10.64
2022-10-11T20:19:31.360Z,10.63
2022-10-11T20:22:00.226Z,10.74
2022-10-11T20:24:33.468Z,10.79
2022-10-11T20:27:02.162Z,10.62
2022-10-11T20:29:30.107Z,10.47
2022-10-11T20:31:58.911Z,10.48
2022-10-11T20:34:27.528Z,10.63
2022-10-11T20:36:55.106Z,10.99
2022-10-11T20:39:23.571Z,11.35
2022-10-11T20:41:52.570Z,11.47
2022-10-11T20:44:20.133Z,11.02
2022-10-11T20:46:47.679Z,10.95
2022-10-11T20:49:15.266Z,10.93
2022-10-11T20:51:43.746Z,10.96
2022-10-11T20:54:11.647Z,11.05
2022-10-11T20:56:39.509Z,11.04
2022-10-11T20:59:09.417Z,11.00
2022-10-11T21:01:39.762Z,10.94
2022-10-11T21:04:11.082Z,11.05
2022-10-11T21:06:38.642Z,10.95
2022-10-11T21:09:06.179Z,10.72
2022-10-11T21:11:35.414Z,10.44
2022-10-11T21:14:05.812Z,10.12
2022-10-11T21:16:35.143Z,9.95
2022-10-11T21:19:03.877Z,10.00
2022-10-11T21:21:31.942Z,10.04
2022-10-11T21:24:01.521Z,10.10
2022-10-11T21:26:30.553Z,9.98
2022-10-11T21:28:59.140Z,10.00
2022-10-11T21:31:31.027Z,9.98
2022-10-11T21:34:03.169Z,9.74
2022-10-11T21:36:31.690Z,9.77
2022-10-11T21:38:59.335Z,9.94
2022-10-11T21:41:30.243Z,10.19
2022-10-11T21:43:58.370Z,10.51
2022-10-11T21:46:47.556Z,10.73
2022-10-11T21:49:16.601Z,10.53
2022-10-11T21:51:44.205Z,10.57
2022-10-11T21:54:11.884Z,10.43
2022-10-11T21:56:39.402Z,10.24
2022-10-11T21:59:11.071Z,10.15
2022-10-11T22:01:40.756Z,10.03
2022-10-11T22:04:08.935Z,9.95
2022-10-11T22:06:38.877Z,9.87
2022-10-11T22:09:07.550Z,9.82
2022-10-11T22:11:35.334Z,9.67
2022-10-11T22:14:02.895Z,9.59
2022-10-11T22:16:30.629Z,9.48
2022-10-11T22:18:58.161Z,9.44
2022-10-11T22:21:25.746Z,9.57
2022-10-11T22:23:55.242Z,9.68
2022-10-11T22:26:25.329Z,9.63
2022-10-11T22:28:54.101Z,9.57
2022-10-11T22:31:22.677Z,9.60
2022-10-11T22:33:53.790Z,9.59
2022-10-11T22:36:23.917Z,9.49
2022-10-11T22:38:51.951Z,9.58
2022-10-11T22:41:20.933Z,9.50
2022-10-11T22:43:48.563Z,9.44
2022-10-11T22:46:16.343Z,9.65
2022-10-11T22:48:43.914Z,9.47
2022-10-11T22:51:11.473Z,9.55
2022-10-11T22:53:39.540Z,9.41
2022-10-11T22:56:08.716Z,9.43
2022-10-11T22:58:37.662Z,9.37
2022-10-11T23:01:09.446Z,9.27
2022-10-11T23:03:37.098Z,9.27
2022-10-11T23:06:04.990Z,9.24
2022-10-11T23:08:32.740Z,9.02
2022-10-11T23:11:03.682Z,8.94
2022-10-11T23:13:31.242Z,8.90
2022-10-11T23:16:00.221Z,8.93
2022-10-11T23:18:27.827Z,8.88
2022-10-11T23:20:55.394Z,8.85
2022-10-11T23:23:22.955Z,8.78
2022-10-11T23:25:50.559Z,8.71
2022-10-11T23:28:18.105Z,8.73
2022-10-11T23:30:45.686Z,8.63
2022-10-11T23:33:14.644Z,8.58
2022-10-11T23:35:42.216Z,8.46
2022-10-11T23:38:09.745Z,8.42
2022-10-11T23:40:37.310Z,8.41
2022-10-11T23:43:04.837Z,8.39
2022-10-11T23:45:32.373Z,8.37
2022-10-11T23:47:59.908Z,8.42
2022-10-11T23:50:28.797Z,8.28
2022-10-11T23:52:57.058Z,8.19
2022-10-11T23:55:24.604Z,8.17
2022-10-11T23:57:52.208Z,8.01
